Latest Weather Observations for Mount Hotham AWS

IDV60801

Issued at 5:05 am EST Friday 1 August 2014 (issued every 30 minutes, with the page automatically refreshed every 10 minutes)

About weather observations | Map of weather stations | Latest weather observations for VIC | Other Formats
Station Details ID: 083085 Name: MOUNT HOTHAM Lat: -36.98 Lon: 147.13 Height: 1849.0 m
Data from the previous 72 hours. | See also: Recent months at Mount Hotham AWS
Date/Time
EST
Temp
°C
App
Temp
°C
Dew
Point
Rel
Hum
%
Delta-T
°C
Wind Press
QNH
hPa
Press
MSL
hPa
Rain
since 9 am
mm
Dir
 
Spd
km/h
Gust
km/h
Spd
kts
Gust
kts
01/05:00am -7.0 -15.9 -7.3 98 -0.2 NW 32 43 17 23 - - 1.0
01/04:30am -6.8 -15.7 -7.1 98 -0.2 NW 32 43 17 23 - - 1.0
01/04:00am -6.8 -15.7 -6.9 99 -0.2 NW 32 43 17 23 - - 1.0
01/03:30am -6.5 -15.5 -6.6 99 -0.2 NW 33 43 18 23 - - 1.0
01/03:00am -6.2 -15.0 -6.3 99 -0.2 NW 32 46 17 25 - - 1.0
01/02:30am -5.6 -14.9 -5.7 99 -0.2 NW 35 48 19 26 - - 1.0
01/02:12am -5.4 -15.1 -5.5 99 -0.2 NW 37 56 20 30 - - 1.0
01/02:00am -5.2 -14.5 -5.3 99 -0.2 NW 35 48 19 26 - - 1.0
01/01:30am -4.7 -14.3 -4.8 99 -0.2 NW 37 50 20 27 - - 1.0
01/01:02am -4.2 -13.0 -4.3 99 -0.2 NW 33 52 18 28 - - 1.0
01/01:00am -4.2 -13.0 -4.3 99 -0.2 NW 33 50 18 27 - - 1.0
01/12:49am -4.0 -12.8 -4.1 99 -0.1 NW 33 54 18 29 - - 1.0
01/12:30am -3.8 -13.7 -3.9 99 -0.1 NW 39 56 21 30 - - 1.0
01/12:00am -3.6 -14.8 -3.7 99 -0.1 NW 46 59 25 32 - - 1.0
 
Date/Time
EST
Temp
°C
App
Temp
°C
Dew
Point
Rel
Hum
%
Delta-T
°C
Wind Press
QNH
hPa
Press
MSL
hPa
Rain
since 9 am
mm
Dir
 
Spd
km/h
Gust
km/h
Spd
kts
Gust
kts
31/11:43pm -3.3 -15.6 -3.4 99 -0.1 WNW 52 70 28 38 - - 1.0
31/11:30pm -3.2 -15.5 -3.3 99 -0.1 WNW 52 67 28 36 - - 1.0
31/11:00pm -2.1 -14.3 -2.2 99 -0.1 NW 52 74 28 40 - - 1.0
31/10:30pm -1.5 -14.3 -1.6 99 0.0 WNW 56 80 30 43 - - 1.0
31/10:00pm -0.9 -12.9 -1.0 99 0.0 WNW 52 74 28 40 - - 1.0
31/09:59pm -0.8 -12.4 -0.9 99 0.0 WNW 50 74 27 40 - - 1.0
31/09:54pm -0.7 -16.1 -0.8 99 0.0 WNW 70 89 38 48 - - 1.0
31/09:49pm -0.4 -16.9 -0.5 99 0.0 WNW 76 89 41 48 - - 1.0
31/09:45pm -0.3 -12.6 -0.4 99 0.0 WNW 54 87 29 47 - - 1.0
31/09:44pm -0.3 -11.8 -0.4 99 0.0 WNW 50 61 27 33 - - 1.0
31/09:30pm 0.3 -15.4 0.0 98 0.1 NW 72 106 39 57 - - 1.0
31/09:20pm 1.1 -13.7 -0.8 87 0.8 NW 67 120 36 65 - - 1.0
31/09:14pm 1.4 -12.7 -1.3 82 1.1 NW 63 89 34 48 - - 1.0
31/09:13pm 1.5 -11.9 -1.4 81 1.2 NW 59 76 32 41 - - 1.0
31/09:00pm 1.9 -15.5 -1.9 76 1.5 NW 80 113 43 61 - - 1.0
31/08:30pm 2.4 -15.5 -2.3 71 1.9 NNW 82 122 44 66 - - 1.0
31/08:00pm 2.3 -14.8 -1.8 74 1.6 NNW 78 117 42 63 - - 1.0
31/07:30pm 2.2 -15.2 -1.8 75 1.6 NW 80 122 43 66 - - 1.0
31/07:00pm 2.5 -15.0 -2.2 71 1.9 NW 80 113 43 61 - - 1.0
31/06:30pm 2.3 -14.7 -1.7 75 1.6 NNW 78 104 42 56 - - 1.0
31/06:00pm 2.0 -15.4 -1.8 76 1.5 NNW 80 117 43 63 - - 1.0
31/05:30pm 2.1 -15.6 -1.2 79 1.3 NNW 82 113 44 61 - - 1.0
31/05:00pm 1.9 -15.4 -0.8 82 1.1 NNW 80 107 43 58 - - 1.0
31/04:30pm 1.7 -14.8 -0.4 86 0.9 NNW 76 109 41 59 - - 1.0
31/04:00pm 1.6 -15.6 0.0 89 0.7 NNW 80 109 43 59 - - 1.0
31/03:30pm 1.6 -16.1 0.4 92 0.5 NNW 83 124 45 67 - - 1.0
31/03:00pm 1.4 -16.0 1.0 97 0.2 NNW 82 122 44 66 - - 1.0
31/02:30pm 1.2 -16.4 1.1 99 0.0 NW 83 115 45 62 - - 1.0
31/02:00pm 0.8 -17.6 0.7 99 0.0 NNW 87 124 47 67 - - 0.8
31/01:30pm 0.6 -17.5 0.5 99 0.0 NNW 85 120 46 65 - - 0.8
31/01:00pm 0.4 -18.8 0.3 99 0.0 NNW 91 133 49 72 - - 0.6
31/12:30pm 0.4 -18.4 0.3 99 0.0 NNW 89 128 48 69 - - 0.6
31/12:00pm 0.5 -17.0 0.4 99 0.0 NNW 82 111 44 60 - - 0.6
31/11:30am 0.4 -16.4 0.3 99 0.0 NW 78 113 42 61 - - 0.2
31/11:00am 0.3 -16.1 0.2 99 0.0 NNW 76 109 41 59 - - 0.2
31/10:30am 0.4 -16.0 0.3 99 0.0 NNW 76 109 41 59 - - 0.2
31/10:00am 0.4 -15.2 0.3 99 0.0 NNW 72 104 39 56 - - 0.0
31/09:30am 0.5 -16.6 0.4 99 0.0 NNW 80 109 43 59 - - 0.0
31/09:00am 0.6 -17.1 0.5 99 0.0 NNW 83 109 45 59 - - 38.4
31/08:30am 0.7 -17.3 0.6 99 0.0 NNW 85 113 46 61 - - 38.2
31/08:00am 1.0 -16.0 0.9 99 0.0 NNW 80 111 43 60 - - 38.2
31/07:30am 1.2 -16.8 1.1 99 0.0 NNW 85 111 46 60 - - 38.0
31/07:16am 1.2 -18.3 1.1 99 0.0 NNW 93 115 50 62 - - 38.0
31/07:00am 1.1 -14.0 1.0 99 0.0 NNW 70 98 38 53 - - 37.8
31/06:30am 1.2 -15.1 1.1 99 0.0 NNW 76 115 41 62 - - 37.8
31/06:00am 1.2 -13.7 1.1 99 0.0 NNW 69 100 37 54 - - 37.4
31/05:30am 1.4 -14.1 1.3 99 0.0 NNW 72 100 39 54 - - 37.2
31/05:00am 1.3 -13.8 1.2 99 0.0 NW 70 98 38 53 - - 37.0
31/04:30am 1.4 -12.7 1.3 99 0.0 NNW 65 89 35 48 - - 36.4
31/04:00am 1.5 -13.9 1.4 99 0.0 NW 72 102 39 55 - - 35.2
31/03:30am 1.5 -13.6 1.4 99 0.0 NW 70 106 38 57 - - 35.0
31/03:00am 1.3 -13.2 1.2 99 0.0 NW 67 96 36 52 - - 33.8
31/02:56am 1.5 -13.0 1.4 99 0.0 NW 67 96 36 52 - - 33.8
31/02:30am 0.9 -12.2 0.8 99 0.0 NW 59 78 32 42 - - 33.0
31/02:00am 0.8 -13.0 0.7 99 0.0 NW 63 91 34 49 - - 33.0
31/01:30am 0.7 -13.2 0.6 99 0.0 NW 63 85 34 46 - - 33.0
31/01:00am 1.0 -12.8 0.9 99 0.0 NW 63 96 34 52 - - 32.8
31/12:30am 1.3 -11.7 1.2 99 0.0 NW 59 83 32 45 - - 30.4
31/12:00am 1.1 -13.5 1.0 99 0.0 NW 67 87 36 47 - - 28.6
 
Date/Time
EST
Temp
°C
App
Temp
°C
Dew
Point
Rel
Hum
%
Delta-T
°C
Wind Press
QNH
hPa
Press
MSL
hPa
Rain
since 9 am
mm
Dir
 
Spd
km/h
Gust
km/h
Spd
kts
Gust
kts
30/11:30pm 1.2 -12.2 1.1 99 0.0 NW 61 87 33 47 - - 28.4
30/11:22pm 1.7 -10.3 1.6 99 0.0 NW 54 87 29 47 - - 28.4
30/11:21pm 1.6 -9.3 1.5 99 0.0 NW 48 57 26 31 - - 28.4
30/11:00pm 1.3 -13.6 1.2 99 0.0 NW 69 102 37 55 - - 27.6
30/10:30pm 1.4 -14.1 1.3 99 0.0 NNW 72 96 39 52 - - 27.0
30/10:00pm 1.5 -11.5 1.4 99 0.0 NW 59 80 32 43 - - 26.6
30/09:30pm 1.3 -11.3 1.2 99 0.0 NNW 57 85 31 46 - - 26.4
30/09:00pm 1.4 -12.0 1.3 99 0.0 NNW 61 91 33 49 - - 26.0
30/08:30pm 1.6 -12.5 1.5 99 0.0 NW 65 100 35 54 - - 25.8
30/08:00pm 1.7 -12.4 1.6 99 0.0 NW 65 85 35 46 - - 25.6
30/07:30pm 1.7 -12.4 1.6 99 0.0 NW 65 98 35 53 - - 25.4
30/07:24pm 1.6 -12.5 1.5 99 0.0 NW 65 98 35 53 - - 25.4
30/07:00pm 1.6 -11.7 1.5 99 0.0 NW 61 80 33 43 - - 24.8
30/06:30pm 1.7 -10.7 1.6 99 0.0 NW 56 74 30 40 - - 24.0
30/06:00pm 1.5 -10.9 1.4 99 0.0 NW 56 74 30 40 - - 22.4
30/05:30pm 1.6 -12.1 1.5 99 0.0 NW 63 85 34 46 - - 21.2
30/05:17pm 1.6 -13.8 1.5 99 0.0 NW 72 91 39 49 - - 20.8
30/05:00pm 1.6 -10.4 1.5 99 0.0 WNW 54 78 29 42 - - 19.8
30/04:30pm 1.7 -11.2 1.6 99 0.0 NW 59 78 32 42 - - 18.2
30/04:00pm 1.7 -10.3 1.6 99 0.0 NW 54 85 29 46 - - 17.0
30/03:30pm 1.8 -10.2 1.7 99 0.0 NW 54 83 29 45 - - 15.2
30/03:00pm 1.6 -11.7 1.5 99 0.0 NW 61 82 33 44 - - 14.4
30/02:30pm 1.5 -10.5 1.4 99 0.0 NW 54 74 29 40 - - 13.4
30/02:00pm 1.6 -10.8 1.5 99 0.0 NW 56 74 30 40 - - 12.2
30/01:30pm 1.7 -9.9 1.6 99 0.0 NW 52 83 28 45 - - 10.2
30/01:00pm 1.6 -11.0 1.5 99 0.0 NW 57 76 31 41 - - 8.6
30/12:30pm 1.6 -10.8 1.5 99 0.0 NW 56 76 30 41 - - 7.0
30/12:13pm 1.6 -11.0 1.5 99 0.0 NW 57 83 31 45 - - 6.4
30/12:00pm 1.6 -10.8 1.5 99 0.0 NW 56 72 30 39 - - 5.8
30/11:30am 1.5 -11.5 1.4 99 0.0 NW 59 80 32 43 - - 4.8
30/11:00am 1.5 -11.5 1.4 99 0.0 NW 59 83 32 45 - - 3.6
30/10:35am 1.5 -10.5 1.4 99 0.0 NW 54 72 29 39 - - 3.2
30/10:30am 1.5 -10.9 1.4 99 0.0 NW 56 72 30 39 - - 2.6
30/10:00am 1.5 -10.5 1.4 99 0.0 NW 54 72 29 39 - - 1.4
30/09:30am 1.5 -9.8 1.4 99 0.0 NW 50 70 27 38 - - 0.6
30/09:00am 1.6 -10.0 1.5 99 0.0 WNW 52 78 28 42 - - 42.0
30/08:31am 1.7 -11.2 1.6 99 0.0 NW 59 78 32 42 - - -
30/08:30am 1.7 -11.6 1.6 99 0.0 NW 61 78 33 42 - - -
30/08:00am 1.7 -10.3 1.6 99 0.0 NW 54 76 29 41 - - -
30/07:30am 1.6 -10.4 1.5 99 0.0 NW 54 80 29 43 - - -
30/07:00am 1.6 -10.4 1.5 99 0.0 NW 54 76 29 41 - - -
30/06:30am 1.6 -10.4 1.5 99 0.0 NW 54 72 29 39 - - -
30/06:00am 1.6 -10.4 1.5 99 0.0 NW 54 76 29 41 - - -
30/05:30am 1.5 -11.5 1.4 99 0.0 NW 59 85 32 46 - - -
30/05:00am 1.7 -10.9 1.6 99 0.0 NW 57 78 31 42 - - -
30/04:30am 1.8 -11.5 1.7 99 0.0 NW 61 80 33 43 - - -
30/04:00am 1.7 -10.9 1.6 99 0.0 NW 57 80 31 43 - - -
30/03:30am 1.6 -11.0 1.5 99 0.0 WNW 57 80 31 43 - - -
30/03:02am 1.9 -10.4 1.8 99 0.0 WNW 56 82 30 44 - - -
30/03:00am 1.7 -10.7 1.6 99 0.0 WNW 56 72 30 39 - - -
30/02:30am 1.8 -11.1 1.7 99 0.0 WNW 59 93 32 50 - - 30.2
30/02:00am 1.8 -11.1 1.7 99 0.0 WNW 59 87 32 47 - - 30.0
30/01:30am 1.8 -10.7 1.7 99 0.0 NW 57 87 31 47 - - 29.0
30/01:00am 1.6 -12.5 1.5 99 0.0 WNW 65 98 35 53 - - 28.4
30/12:30am 1.7 -10.9 1.6 99 0.0 WNW 57 89 31 48 - - 26.8
30/12:00am 1.7 -12.4 1.6 99 0.0 NW 65 95 35 51 - - 25.2
 
Date/Time
EST
Temp
°C
App
Temp
°C
Dew
Point
Rel
Hum
%
Delta-T
°C
Wind Press
QNH
hPa
Press
MSL
hPa
Rain
since 9 am
mm
Dir
 
Spd
km/h
Gust
km/h
Spd
kts
Gust
kts
29/11:30pm 1.6 -11.7 1.5 99 0.0 NW 61 83 33 45 - - 23.6
29/11:00pm 1.7 -10.7 1.6 99 0.0 NW 56 78 30 42 - - 22.6
29/10:30pm 1.6 -11.0 1.5 99 0.0 NW 57 87 31 47 - - 19.8
29/10:00pm 1.4 -11.2 1.3 99 0.0 NW 57 91 31 49 - - 17.8
29/09:30pm 1.1 -11.9 1.0 99 0.0 NW 59 83 32 45 - - 14.8
29/09:00pm 1.1 -13.8 1.0 99 0.0 NNW 69 91 37 49 - - 12.8
29/08:30pm 0.9 -13.3 0.8 99 0.0 NW 65 91 35 49 - - 11.0
29/08:00pm 0.7 -14.3 0.6 99 0.0 NNW 69 102 37 55 - - 9.4
29/07:30pm 0.7 -13.9 0.6 99 0.0 NW 67 106 36 57 - - 8.6
29/07:00pm 0.5 -14.2 0.4 99 0.0 NNW 67 96 36 52 - - 8.0
29/06:30pm 0.6 -14.6 0.5 99 0.0 NNW 70 91 38 49 - - 7.8
29/06:00pm 0.6 -15.0 0.5 99 0.0 NNW 72 98 39 53 - - 7.2
29/05:30pm 0.7 -13.9 0.6 99 0.0 NNW 67 91 36 49 - - 5.8
29/05:00pm 0.7 -14.3 0.6 99 0.0 NNW 69 95 37 51 - - 4.8
29/04:31pm 0.5 -13.8 0.4 99 0.0 NNW 65 87 35 47 - - 4.0
29/04:30pm 0.5 -13.8 0.4 99 0.0 NNW 65 82 35 44 - - 4.0
29/04:00pm 0.3 -15.0 0.2 99 0.0 NNW 70 89 38 48 - - 3.4
29/03:30pm 0.1 -14.6 0.0 99 0.0 NW 67 93 36 50 - - 2.6
29/03:00pm 0.0 -15.1 -0.1 99 0.0 NW 69 93 37 50 - - 1.8
29/02:30pm -0.1 -14.5 -0.2 99 0.0 NW 65 87 35 47 - - 1.6
29/02:00pm -0.2 -14.6 -0.3 99 0.0 NW 65 91 35 49 - - 1.4
29/01:30pm -0.2 -13.1 -0.3 99 0.0 NNW 57 80 31 43 - - 1.0
29/01:00pm -0.3 -13.6 -0.4 99 0.0 NW 59 83 32 45 - - 1.0
29/12:30pm -0.4 -13.7 -0.5 99 0.0 NW 59 85 32 46 - - 0.8
29/12:00pm -0.4 -14.8 -0.5 99 0.0 NW 65 93 35 50 - - 0.0
29/11:57am -0.4 -14.8 -0.5 99 0.0 NW 65 93 35 50 - - 0.0
29/11:30am -0.5 -13.2 -0.6 99 0.0 NNW 56 74 30 40 - - 0.0
29/11:00am -0.6 -12.9 -0.7 99 0.0 NW 54 76 29 41 - - 0.0
29/10:37am -0.6 -13.3 -0.7 99 0.0 NW 56 74 30 40 - - 0.0
29/10:30am -0.6 -13.5 -0.7 99 0.0 NW 57 72 31 39 - - 0.0
29/10:00am -0.7 -14.4 -0.8 99 0.0 NNW 61 80 33 43 - - 0.0
29/09:30am -0.9 -14.6 -1.0 99 0.0 NW 61 80 33 43 - - 0.0
29/09:06am -0.9 -13.9 -1.0 99 0.0 NNW 57 76 31 41 - - 0.0
29/09:00am -1.0 -14.7 -1.1 99 0.0 NNW 61 76 33 41 - - 2.8
29/08:31am -0.8 -12.8 -0.9 99 0.0 NNW 52 70 28 38 - - 2.8
29/08:30am -0.7 -13.1 -0.8 99 0.0 NNW 54 70 29 38 - - 2.8
29/08:00am -0.9 -13.7 -1.0 99 0.0 NNW 56 89 30 48 - - 2.8
29/07:37am -0.9 -13.9 -1.0 99 0.0 NNW 57 80 31 43 - - 2.8
29/07:30am -0.9 -13.9 -1.0 99 0.0 NNW 57 72 31 39 - - 2.8
29/07:00am -0.8 -14.5 -0.9 99 0.0 NNW 61 85 33 46 - - 2.8
29/06:30am -1.0 -15.5 -1.1 99 0.0 NNW 65 91 35 49 - - 2.8
29/06:00am -1.2 -15.7 -1.3 99 0.0 NNW 65 83 35 45 - - 2.8
29/05:30am -1.0 -14.3 -1.1 99 0.0 NNW 59 80 32 43 - - 2.8

Other Formats:

Comma delimited format used in spreadsheet applications
http://www.bom.gov.au/fwo/IDV60801/IDV60801.94906.axf

JavaScript Object Notation format (JSON) in row-major order
http://www.bom.gov.au/fwo/IDV60801/IDV60801.94906.json